Aeroporto :
LOGIN :

Iscrizione | Disclaimer

   EN    FR    IT 

 










Sommario :    VFR   VFR Marginale   IFR   IFR Intensivo   IFR Molto Intensivo
Visibilità : 
Base nubi : 
>= 8 km
>= 3000ft
5 / 8 km
1000 / 3000 ft
1500m / 5 km
500 / 1000 ft
800 / 1500m
200 / 500 ft
< 800m
< 200 ft
Simboli :   Temporali  Nebbia  Neve Forte  Precipitazioni Forti  Vento > 20 kt
SIGMETs :   Varie  Temporali  Ghiacco  Turbolenza  Onda orograficha  Ceneri Vulcaniche






- Altitudine del aeroporto : 1496 ft
- Codice IATA : SBZ


LRSB - Sibiu

ULTIMO METAR :
  • 272100Z 27009KT 9999 OVC067 02/M03 Q1006

METARs OBSOLETI :
  • 272030Z 27011KT 9999 OVC068 02/M03 Q1006
  • 272000Z 28013KT 9999 OVC066 03/M02 Q1006
  • 271930Z 28015KT 9999 BKN067 03/M02 Q1005 R27/CLRD//
  • 271900Z 28014KT 9999 FEW046 BKN070 03/M02 Q1005 R27/19//95
  • 271830Z 28014KT 9999 FEW046 BKN068 03/M02 Q1005 R27/19//95

TAF TAF LRSB
Valido dal 27 a 18 ore il 28 a 18 ore UTC


271700Z 2718/2818 27008KT 9999 SCT040 BKN070
BECMG 2806/2808 16010KT
TEMPO 2815/2818 5000 -SHRA SCT015 SCT035CB BKN050



MetMap, La meteo Aeronautica in un colpo d'occhio ! - Copyright ORBIFLY Dicembre 2007 - Disclaimer

ORBIFLY MET'MAP TEAM :

Programmazione e sviluppo : Alexandra Zaïnal
Concezione : Baudouin d'Aumeries
Aiuto per la programmazione : Marc-Olivier Méhu
Supporto tecnico e logistico : Manuel Goepfert
Aiuto per la traduzione : Arnaldo La Scala

Contatto : metmap@orbifly.com




FONTI E CREDITI :

   NOAA